sensor_id;sensor_type;location;lat;lon;timestamp;P1;durP1;ratioP1;P2;durP2;ratioP2
18610;SDS011;9435;52.122;5.502;2022-09-09T00:00:53;3.13;;;1.23;;
18610;SDS011;9435;52.122;5.502;2022-09-09T00:03:26;4.22;;;1.50;;
18610;SDS011;9435;52.122;5.502;2022-09-09T00:05:59;3.45;;;1.50;;
18610;SDS011;9435;52.122;5.502;2022-09-09T00:08:38;5.88;;;1.50;;
18610;SDS011;9435;52.122;5.502;2022-09-09T00:11:21;7.03;;;1.88;;
18610;SDS011;9435;52.122;5.502;2022-09-09T00:13:54;3.80;;;1.50;;
18610;SDS011;9435;52.122;5.502;2022-09-09T00:16:25;3.03;;;1.65;;
18610;SDS011;9435;52.122;5.502;2022-09-09T00:18:57;5.43;;;2.08;;
18610;SDS011;9435;52.122;5.502;2022-09-09T00:21:31;3.72;;;1.85;;
18610;SDS011;9435;52.122;5.502;2022-09-09T00:24:07;3.35;;;1.98;;
18610;SDS011;9435;52.122;5.502;2022-09-09T00:26:40;4.35;;;2.00;;
18610;SDS011;9435;52.122;5.502;2022-09-09T00:29:13;4.47;;;2.70;;
18610;SDS011;9435;52.122;5.502;2022-09-09T00:31:46;3.92;;;2.33;;
18610;SDS011;9435;52.122;5.502;2022-09-09T00:34:14;5.47;;;3.25;;
18610;SDS011;9435;52.122;5.502;2022-09-09T00:36:45;4.82;;;2.80;;
18610;SDS011;9435;52.122;5.502;2022-09-09T00:39:18;6.28;;;3.03;;
18610;SDS011;9435;52.122;5.502;2022-09-09T00:42:00;5.57;;;2.50;;
18610;SDS011;9435;52.122;5.502;2022-09-09T00:44:37;5.70;;;3.05;;
18610;SDS011;9435;52.122;5.502;2022-09-09T00:47:09;5.03;;;3.50;;
18610;SDS011;9435;52.122;5.502;2022-09-09T00:49:54;7.20;;;3.70;;
18610;SDS011;9435;52.122;5.502;2022-09-09T00:52:31;7.25;;;3.63;;
18610;SDS011;9435;52.122;5.502;2022-09-09T00:55:13;8.50;;;4.13;;
18610;SDS011;9435;52.122;5.502;2022-09-09T00:57:46;6.45;;;3.67;;
18610;SDS011;9435;52.122;5.502;2022-09-09T01:00:19;5.05;;;3.58;;
18610;SDS011;9435;52.122;5.502;2022-09-09T01:02:52;6.65;;;4.18;;
18610;SDS011;9435;52.122;5.502;2022-09-09T01:05:30;8.20;;;4.55;;
18610;SDS011;9435;52.122;5.502;2022-09-09T01:08:02;7.18;;;4.95;;
18610;SDS011;9435;52.122;5.502;2022-09-09T01:10:41;7.82;;;4.43;;
18610;SDS011;9435;52.122;5.502;2022-09-09T01:13:15;7.97;;;4.75;;
18610;SDS011;9435;52.122;5.502;2022-09-09T01:15:50;8.82;;;5.15;;
18610;SDS011;9435;52.122;5.502;2022-09-09T01:18:20;9.48;;;5.70;;
18610;SDS011;9435;52.122;5.502;2022-09-09T01:20:53;7.95;;;4.65;;
18610;SDS011;9435;52.122;5.502;2022-09-09T01:23:41;9.02;;;5.20;;
18610;SDS011;9435;52.122;5.502;2022-09-09T01:26:21;8.05;;;5.15;;
18610;SDS011;9435;52.122;5.502;2022-09-09T01:28:52;9.55;;;4.68;;
18610;SDS011;9435;52.122;5.502;2022-09-09T01:31:21;7.82;;;5.10;;
18610;SDS011;9435;52.122;5.502;2022-09-09T01:33:53;9.05;;;4.95;;
18610;SDS011;9435;52.122;5.502;2022-09-09T01:36:25;7.75;;;4.72;;
18610;SDS011;9435;52.122;5.502;2022-09-09T01:38:58;7.97;;;4.30;;
18610;SDS011;9435;52.122;5.502;2022-09-09T01:41:26;10.48;;;4.65;;
18610;SDS011;9435;52.122;5.502;2022-09-09T01:43:54;8.02;;;4.55;;
18610;SDS011;9435;52.122;5.502;2022-09-09T01:46:21;7.65;;;4.20;;
18610;SDS011;9435;52.122;5.502;2022-09-09T01:48:48;7.07;;;4.20;;
18610;SDS011;9435;52.122;5.502;2022-09-09T01:51:17;9.05;;;4.40;;
18610;SDS011;9435;52.122;5.502;2022-09-09T01:53:44;6.35;;;4.45;;
18610;SDS011;9435;52.122;5.502;2022-09-09T01:56:15;6.32;;;4.45;;
18610;SDS011;9435;52.122;5.502;2022-09-09T01:58:55;7.97;;;4.40;;
18610;SDS011;9435;52.122;5.502;2022-09-09T02:01:32;6.63;;;4.38;;
18610;SDS011;9435;52.122;5.502;2022-09-09T02:04:11;7.47;;;4.43;;
18610;SDS011;9435;52.122;5.502;2022-09-09T02:06:49;7.55;;;4.70;;
18610;SDS011;9435;52.122;5.502;2022-09-09T02:09:20;8.77;;;4.93;;
18610;SDS011;9435;52.122;5.502;2022-09-09T02:11:50;8.40;;;4.70;;
18610;SDS011;9435;52.122;5.502;2022-09-09T02:14:27;9.10;;;4.65;;
18610;SDS011;9435;52.122;5.502;2022-09-09T02:16:59;8.25;;;4.60;;
18610;SDS011;9435;52.122;5.502;2022-09-09T02:19:29;8.13;;;4.88;;
18610;SDS011;9435;52.122;5.502;2022-09-09T02:22:01;8.35;;;5.05;;
18610;SDS011;9435;52.122;5.502;2022-09-09T02:24:30;7.00;;;5.07;;
18610;SDS011;9435;52.122;5.502;2022-09-09T02:27:00;10.05;;;5.10;;
18610;SDS011;9435;52.122;5.502;2022-09-09T02:29:36;7.63;;;4.40;;
18610;SDS011;9435;52.122;5.502;2022-09-09T02:32:08;7.75;;;4.65;;
18610;SDS011;9435;52.122;5.502;2022-09-09T02:34:39;8.05;;;4.97;;
18610;SDS011;9435;52.122;5.502;2022-09-09T02:37:09;8.73;;;5.35;;
18610;SDS011;9435;52.122;5.502;2022-09-09T02:39:39;8.07;;;5.10;;
18610;SDS011;9435;52.122;5.502;2022-09-09T02:42:06;7.78;;;4.65;;
18610;SDS011;9435;52.122;5.502;2022-09-09T02:44:35;11.30;;;5.53;;
18610;SDS011;9435;52.122;5.502;2022-09-09T02:50:02;6.97;;;4.70;;
18610;SDS011;9435;52.122;5.502;2022-09-09T02:52:40;8.77;;;5.05;;
18610;SDS011;9435;52.122;5.502;2022-09-09T02:55:23;10.80;;;5.05;;
18610;SDS011;9435;52.122;5.502;2022-09-09T02:58:04;8.93;;;5.30;;
18610;SDS011;9435;52.122;5.502;2022-09-09T03:00:36;8.65;;;5.47;;
18610;SDS011;9435;52.122;5.502;2022-09-09T03:03:04;9.13;;;5.35;;
18610;SDS011;9435;52.122;5.502;2022-09-09T03:05:31;7.30;;;5.00;;
18610;SDS011;9435;52.122;5.502;2022-09-09T03:07:59;8.02;;;5.45;;
18610;SDS011;9435;52.122;5.502;2022-09-09T03:10:26;8.55;;;5.45;;
18610;SDS011;9435;52.122;5.502;2022-09-09T03:12:53;10.05;;;5.95;;
18610;SDS011;9435;52.122;5.502;2022-09-09T03:15:20;10.10;;;6.30;;
18610;SDS011;9435;52.122;5.502;2022-09-09T03:17:49;11.90;;;5.57;;
18610;SDS011;9435;52.122;5.502;2022-09-09T03:20:16;9.50;;;5.80;;
18610;SDS011;9435;52.122;5.502;2022-09-09T03:22:43;8.48;;;5.72;;
18610;SDS011;9435;52.122;5.502;2022-09-09T03:25:10;8.07;;;5.88;;
18610;SDS011;9435;52.122;5.502;2022-09-09T03:27:37;9.38;;;5.80;;
18610;SDS011;9435;52.122;5.502;2022-09-09T03:30:05;9.27;;;5.40;;
18610;SDS011;9435;52.122;5.502;2022-09-09T03:32:33;12.20;;;6.32;;
18610;SDS011;9435;52.122;5.502;2022-09-09T03:35:01;9.45;;;5.50;;
18610;SDS011;9435;52.122;5.502;2022-09-09T03:37:28;9.50;;;5.75;;
18610;SDS011;9435;52.122;5.502;2022-09-09T03:39:56;13.23;;;6.30;;
18610;SDS011;9435;52.122;5.502;2022-09-09T03:42:24;12.65;;;6.57;;
18610;SDS011;9435;52.122;5.502;2022-09-09T03:44:52;10.18;;;6.13;;
18610;SDS011;9435;52.122;5.502;2022-09-09T03:47:20;11.00;;;6.10;;
18610;SDS011;9435;52.122;5.502;2022-09-09T03:49:47;10.93;;;6.03;;
18610;SDS011;9435;52.122;5.502;2022-09-09T03:52:16;10.48;;;6.18;;
18610;SDS011;9435;52.122;5.502;2022-09-09T03:54:43;9.77;;;6.03;;
18610;SDS011;9435;52.122;5.502;2022-09-09T03:57:10;10.55;;;6.38;;
18610;SDS011;9435;52.122;5.502;2022-09-09T03:59:38;10.93;;;6.18;;
18610;SDS011;9435;52.122;5.502;2022-09-09T04:02:05;8.88;;;6.15;;
18610;SDS011;9435;52.122;5.502;2022-09-09T04:04:32;12.00;;;6.50;;
18610;SDS011;9435;52.122;5.502;2022-09-09T04:06:59;14.43;;;6.10;;
18610;SDS011;9435;52.122;5.502;2022-09-09T04:09:28;9.50;;;6.13;;
18610;SDS011;9435;52.122;5.502;2022-09-09T04:11:55;13.30;;;6.65;;
18610;SDS011;9435;52.122;5.502;2022-09-09T04:14:22;12.13;;;6.28;;
18610;SDS011;9435;52.122;5.502;2022-09-09T04:16:53;11.07;;;6.00;;
18610;SDS011;9435;52.122;5.502;2022-09-09T04:19:21;10.18;;;5.82;;
18610;SDS011;9435;52.122;5.502;2022-09-09T04:21:48;9.45;;;5.43;;
18610;SDS011;9435;52.122;5.502;2022-09-09T04:24:16;11.02;;;5.72;;
18610;SDS011;9435;52.122;5.502;2022-09-09T04:26:45;11.18;;;6.07;;
18610;SDS011;9435;52.122;5.502;2022-09-09T04:29:12;13.60;;;6.03;;
18610;SDS011;9435;52.122;5.502;2022-09-09T04:31:39;10.02;;;6.22;;
18610;SDS011;9435;52.122;5.502;2022-09-09T04:34:07;10.55;;;6.00;;
18610;SDS011;9435;52.122;5.502;2022-09-09T04:36:34;12.20;;;6.28;;
18610;SDS011;9435;52.122;5.502;2022-09-09T04:39:01;9.80;;;5.80;;
18610;SDS011;9435;52.122;5.502;2022-09-09T04:41:29;9.82;;;6.40;;
18610;SDS011;9435;52.122;5.502;2022-09-09T04:43:58;8.52;;;5.30;;
18610;SDS011;9435;52.122;5.502;2022-09-09T04:46:25;14.10;;;6.25;;
18610;SDS011;9435;52.122;5.502;2022-09-09T04:48:52;12.70;;;6.13;;
18610;SDS011;9435;52.122;5.502;2022-09-09T04:51:19;12.88;;;6.13;;
18610;SDS011;9435;52.122;5.502;2022-09-09T04:53:47;13.23;;;6.40;;
18610;SDS011;9435;52.122;5.502;2022-09-09T04:56:16;13.88;;;6.32;;
18610;SDS011;9435;52.122;5.502;2022-09-09T04:58:44;11.48;;;5.90;;
18610;SDS011;9435;52.122;5.502;2022-09-09T05:01:13;10.60;;;6.07;;
18610;SDS011;9435;52.122;5.502;2022-09-09T05:03:42;11.20;;;5.85;;
18610;SDS011;9435;52.122;5.502;2022-09-09T05:06:11;10.38;;;5.80;;
18610;SDS011;9435;52.122;5.502;2022-09-09T05:08:39;12.80;;;5.70;;
18610;SDS011;9435;52.122;5.502;2022-09-09T05:11:17;9.55;;;5.57;;
18610;SDS011;9435;52.122;5.502;2022-09-09T05:13:45;11.43;;;6.10;;
18610;SDS011;9435;52.122;5.502;2022-09-09T05:16:14;9.40;;;6.20;;
18610;SDS011;9435;52.122;5.502;2022-09-09T05:18:41;10.40;;;5.50;;
18610;SDS011;9435;52.122;5.502;2022-09-09T05:21:09;10.23;;;5.97;;
18610;SDS011;9435;52.122;5.502;2022-09-09T05:23:36;10.88;;;5.80;;
18610;SDS011;9435;52.122;5.502;2022-09-09T05:26:04;13.82;;;5.85;;
18610;SDS011;9435;52.122;5.502;2022-09-09T05:28:33;11.43;;;5.93;;
18610;SDS011;9435;52.122;5.502;2022-09-09T05:31:02;14.07;;;6.03;;
18610;SDS011;9435;52.122;5.502;2022-09-09T05:33:34;13.85;;;5.53;;
18610;SDS011;9435;52.122;5.502;2022-09-09T05:36:03;8.80;;;5.47;;
18610;SDS011;9435;52.122;5.502;2022-09-09T05:38:33;13.27;;;5.63;;
18610;SDS011;9435;52.122;5.502;2022-09-09T05:41:01;12.60;;;5.43;;
18610;SDS011;9435;52.122;5.502;2022-09-09T05:43:29;12.50;;;5.78;;
18610;SDS011;9435;52.122;5.502;2022-09-09T05:46:01;10.45;;;5.47;;
18610;SDS011;9435;52.122;5.502;2022-09-09T05:48:29;11.50;;;5.50;;
18610;SDS011;9435;52.122;5.502;2022-09-09T05:50:59;14.65;;;5.75;;
18610;SDS011;9435;52.122;5.502;2022-09-09T05:53:27;11.98;;;5.05;;
18610;SDS011;9435;52.122;5.502;2022-09-09T05:56:00;10.18;;;4.90;;
18610;SDS011;9435;52.122;5.502;2022-09-09T05:58:29;12.38;;;5.07;;
18610;SDS011;9435;52.122;5.502;2022-09-09T06:01:00;12.48;;;5.50;;
18610;SDS011;9435;52.122;5.502;2022-09-09T06:03:28;12.10;;;5.18;;
18610;SDS011;9435;52.122;5.502;2022-09-09T06:06:00;13.27;;;5.60;;
18610;SDS011;9435;52.122;5.502;2022-09-09T06:08:31;13.13;;;5.20;;
18610;SDS011;9435;52.122;5.502;2022-09-09T06:11:02;12.30;;;5.30;;
18610;SDS011;9435;52.122;5.502;2022-09-09T06:13:29;12.00;;;5.18;;
18610;SDS011;9435;52.122;5.502;2022-09-09T06:15:57;11.18;;;5.75;;
18610;SDS011;9435;52.122;5.502;2022-09-09T06:18:25;16.88;;;6.07;;
18610;SDS011;9435;52.122;5.502;2022-09-09T06:20:53;13.85;;;5.45;;
18610;SDS011;9435;52.122;5.502;2022-09-09T06:23:22;18.88;;;5.68;;
18610;SDS011;9435;52.122;5.502;2022-09-09T06:25:49;13.02;;;5.38;;
18610;SDS011;9435;52.122;5.502;2022-09-09T06:28:17;15.27;;;5.72;;
18610;SDS011;9435;52.122;5.502;2022-09-09T06:30:44;15.63;;;5.72;;
18610;SDS011;9435;52.122;5.502;2022-09-09T06:33:12;12.85;;;5.50;;
18610;SDS011;9435;52.122;5.502;2022-09-09T06:35:39;15.52;;;5.15;;
18610;SDS011;9435;52.122;5.502;2022-09-09T06:38:06;14.30;;;5.32;;
18610;SDS011;9435;52.122;5.502;2022-09-09T06:40:35;13.32;;;4.88;;
18610;SDS011;9435;52.122;5.502;2022-09-09T06:43:02;12.30;;;4.55;;
18610;SDS011;9435;52.122;5.502;2022-09-09T06:45:29;11.45;;;4.30;;
18610;SDS011;9435;52.122;5.502;2022-09-09T06:47:56;13.27;;;4.10;;
18610;SDS011;9435;52.122;5.502;2022-09-09T06:50:23;10.57;;;4.13;;
18610;SDS011;9435;52.122;5.502;2022-09-09T06:52:50;14.05;;;4.30;;
18610;SDS011;9435;52.122;5.502;2022-09-09T06:55:17;17.42;;;3.90;;
18610;SDS011;9435;52.122;5.502;2022-09-09T06:57:47;8.75;;;3.30;;
18610;SDS011;9435;52.122;5.502;2022-09-09T07:00:16;13.20;;;3.47;;
18610;SDS011;9435;52.122;5.502;2022-09-09T07:02:43;9.85;;;3.80;;
18610;SDS011;9435;52.122;5.502;2022-09-09T07:05:10;12.82;;;3.95;;
18610;SDS011;9435;52.122;5.502;2022-09-09T07:07:37;10.00;;;3.58;;
18610;SDS011;9435;52.122;5.502;2022-09-09T07:10:04;11.95;;;4.00;;
18610;SDS011;9435;52.122;5.502;2022-09-09T07:12:32;14.57;;;4.00;;
18610;SDS011;9435;52.122;5.502;2022-09-09T07:15:01;8.00;;;3.17;;
18610;SDS011;9435;52.122;5.502;2022-09-09T07:17:28;12.73;;;3.67;;
18610;SDS011;9435;52.122;5.502;2022-09-09T07:19:55;10.23;;;3.58;;
18610;SDS011;9435;52.122;5.502;2022-09-09T07:22:22;12.30;;;3.90;;
18610;SDS011;9435;52.122;5.502;2022-09-09T07:24:50;11.38;;;3.50;;
18610;SDS011;9435;52.122;5.502;2022-09-09T07:27:17;15.38;;;3.92;;
18610;SDS011;9435;52.122;5.502;2022-09-09T07:29:44;10.52;;;3.63;;
18610;SDS011;9435;52.122;5.502;2022-09-09T07:32:12;12.93;;;4.00;;
18610;SDS011;9435;52.122;5.502;2022-09-09T07:34:40;12.68;;;3.45;;
18610;SDS011;9435;52.122;5.502;2022-09-09T07:37:07;9.88;;;3.35;;
18610;SDS011;9435;52.122;5.502;2022-09-09T07:39:36;10.98;;;3.83;;
18610;SDS011;9435;52.122;5.502;2022-09-09T07:42:04;9.05;;;3.38;;
18610;SDS011;9435;52.122;5.502;2022-09-09T07:44:32;9.55;;;3.63;;
18610;SDS011;9435;52.122;5.502;2022-09-09T07:47:00;13.88;;;3.70;;
18610;SDS011;9435;52.122;5.502;2022-09-09T07:49:28;12.55;;;3.63;;
18610;SDS011;9435;52.122;5.502;2022-09-09T07:51:56;14.82;;;3.40;;
18610;SDS011;9435;52.122;5.502;2022-09-09T07:54:23;8.57;;;3.25;;
18610;SDS011;9435;52.122;5.502;2022-09-09T07:56:51;9.80;;;3.40;;
18610;SDS011;9435;52.122;5.502;2022-09-09T07:59:18;12.40;;;3.35;;
18610;SDS011;9435;52.122;5.502;2022-09-09T08:01:46;9.77;;;3.25;;
18610;SDS011;9435;52.122;5.502;2022-09-09T08:04:16;14.82;;;3.40;;
18610;SDS011;9435;52.122;5.502;2022-09-09T08:06:47;11.07;;;3.22;;
18610;SDS011;9435;52.122;5.502;2022-09-09T08:09:17;12.20;;;3.28;;
18610;SDS011;9435;52.122;5.502;2022-09-09T08:11:44;9.65;;;3.17;;
18610;SDS011;9435;52.122;5.502;2022-09-09T08:14:12;10.68;;;3.20;;
18610;SDS011;9435;52.122;5.502;2022-09-09T08:16:40;11.88;;;3.20;;
18610;SDS011;9435;52.122;5.502;2022-09-09T08:19:08;9.10;;;2.83;;
18610;SDS011;9435;52.122;5.502;2022-09-09T08:21:36;12.05;;;3.03;;
18610;SDS011;9435;52.122;5.502;2022-09-09T08:24:07;11.20;;;3.08;;
18610;SDS011;9435;52.122;5.502;2022-09-09T08:26:36;9.25;;;2.80;;
18610;SDS011;9435;52.122;5.502;2022-09-09T08:29:05;9.40;;;2.85;;
18610;SDS011;9435;52.122;5.502;2022-09-09T08:31:33;10.80;;;3.10;;
18610;SDS011;9435;52.122;5.502;2022-09-09T08:34:02;9.60;;;2.70;;
18610;SDS011;9435;52.122;5.502;2022-09-09T08:36:30;7.97;;;2.35;;
18610;SDS011;9435;52.122;5.502;2022-09-09T08:38:59;9.50;;;2.65;;
18610;SDS011;9435;52.122;5.502;2022-09-09T08:44:22;11.55;;;2.80;;
18610;SDS011;9435;52.122;5.502;2022-09-09T08:46:59;10.35;;;2.63;;
18610;SDS011;9435;52.122;5.502;2022-09-09T08:49:47;9.77;;;2.47;;
18610;SDS011;9435;52.122;5.502;2022-09-09T08:52:24;8.80;;;2.80;;
18610;SDS011;9435;52.122;5.502;2022-09-09T08:54:54;11.10;;;2.78;;
18610;SDS011;9435;52.122;5.502;2022-09-09T08:57:26;10.27;;;3.00;;
18610;SDS011;9435;52.122;5.502;2022-09-09T08:59:56;10.45;;;2.80;;
18610;SDS011;9435;52.122;5.502;2022-09-09T09:02:25;9.43;;;2.70;;
18610;SDS011;9435;52.122;5.502;2022-09-09T09:05:07;7.85;;;2.20;;
18610;SDS011;9435;52.122;5.502;2022-09-09T09:07:47;8.10;;;2.80;;
18610;SDS011;9435;52.122;5.502;2022-09-09T09:10:33;8.75;;;2.60;;
18610;SDS011;9435;52.122;5.502;2022-09-09T09:13:13;13.98;;;3.17;;
18610;SDS011;9435;52.122;5.502;2022-09-09T09:15:42;10.15;;;2.70;;
18610;SDS011;9435;52.122;5.502;2022-09-09T09:18:13;9.57;;;2.90;;
18610;SDS011;9435;52.122;5.502;2022-09-09T09:20:49;10.90;;;2.88;;
18610;SDS011;9435;52.122;5.502;2022-09-09T09:23:21;12.38;;;2.88;;
18610;SDS011;9435;52.122;5.502;2022-09-09T09:25:50;11.32;;;2.75;;
18610;SDS011;9435;52.122;5.502;2022-09-09T09:28:24;9.23;;;2.58;;
18610;SDS011;9435;52.122;5.502;2022-09-09T09:30:55;10.57;;;2.45;;
18610;SDS011;9435;52.122;5.502;2022-09-09T09:33:27;11.60;;;2.72;;
18610;SDS011;9435;52.122;5.502;2022-09-09T09:36:00;7.03;;;2.22;;
18610;SDS011;9435;52.122;5.502;2022-09-09T09:38:28;7.80;;;2.50;;
18610;SDS011;9435;52.122;5.502;2022-09-09T09:40:56;12.38;;;2.47;;
18610;SDS011;9435;52.122;5.502;2022-09-09T09:43:26;12.68;;;2.65;;
18610;SDS011;9435;52.122;5.502;2022-09-09T09:45:55;12.50;;;2.53;;
18610;SDS011;9435;52.122;5.502;2022-09-09T09:48:23;12.68;;;2.72;;
18610;SDS011;9435;52.122;5.502;2022-09-09T09:50:52;10.35;;;2.20;;
18610;SDS011;9435;52.122;5.502;2022-09-09T09:53:23;8.30;;;2.17;;
18610;SDS011;9435;52.122;5.502;2022-09-09T09:55:56;8.77;;;2.42;;
18610;SDS011;9435;52.122;5.502;2022-09-09T09:58:27;12.55;;;2.78;;
18610;SDS011;9435;52.122;5.502;2022-09-09T10:00:59;12.05;;;2.50;;
18610;SDS011;9435;52.122;5.502;2022-09-09T10:03:28;11.88;;;2.70;;
18610;SDS011;9435;52.122;5.502;2022-09-09T10:05:56;10.60;;;2.50;;
18610;SDS011;9435;52.122;5.502;2022-09-09T10:08:23;11.52;;;2.50;;
18610;SDS011;9435;52.122;5.502;2022-09-09T10:10:55;10.48;;;2.55;;
18610;SDS011;9435;52.122;5.502;2022-09-09T10:13:49;9.65;;;2.38;;
18610;SDS011;9435;52.122;5.502;2022-09-09T10:16:28;9.52;;;2.40;;
18610;SDS011;9435;52.122;5.502;2022-09-09T10:19:05;8.02;;;2.35;;
18610;SDS011;9435;52.122;5.502;2022-09-09T10:21:47;8.70;;;2.45;;
18610;SDS011;9435;52.122;5.502;2022-09-09T10:27:45;13.07;;;2.60;;
18610;SDS011;9435;52.122;5.502;2022-09-09T10:30:26;10.98;;;2.60;;
18610;SDS011;9435;52.122;5.502;2022-09-09T10:33:02;11.50;;;2.60;;
18610;SDS011;9435;52.122;5.502;2022-09-09T10:35:38;9.95;;;2.50;;
18610;SDS011;9435;52.122;5.502;2022-09-09T10:38:13;9.60;;;2.60;;
18610;SDS011;9435;52.122;5.502;2022-09-09T10:40:43;8.93;;;2.35;;
18610;SDS011;9435;52.122;5.502;2022-09-09T10:43:33;7.53;;;2.50;;
18610;SDS011;9435;52.122;5.502;2022-09-09T10:46:26;8.68;;;2.58;;
18610;SDS011;9435;52.122;5.502;2022-09-09T10:49:04;9.60;;;2.58;;
18610;SDS011;9435;52.122;5.502;2022-09-09T10:51:44;8.85;;;2.47;;
18610;SDS011;9435;52.122;5.502;2022-09-09T10:54:22;6.60;;;2.58;;
18610;SDS011;9435;52.122;5.502;2022-09-09T10:57:09;7.57;;;2.70;;
18610;SDS011;9435;52.122;5.502;2022-09-09T10:59:40;8.68;;;2.92;;
18610;SDS011;9435;52.122;5.502;2022-09-09T11:02:15;11.18;;;3.08;;
18610;SDS011;9435;52.122;5.502;2022-09-09T11:04:48;8.98;;;3.25;;
18610;SDS011;9435;52.122;5.502;2022-09-09T11:07:22;8.38;;;3.20;;
18610;SDS011;9435;52.122;5.502;2022-09-09T11:09:56;7.30;;;3.22;;
18610;SDS011;9435;52.122;5.502;2022-09-09T11:12:27;8.90;;;3.33;;
18610;SDS011;9435;52.122;5.502;2022-09-09T11:14:57;8.27;;;3.10;;
18610;SDS011;9435;52.122;5.502;2022-09-09T11:17:33;9.95;;;3.50;;
18610;SDS011;9435;52.122;5.502;2022-09-09T11:20:11;9.35;;;3.38;;
18610;SDS011;9435;52.122;5.502;2022-09-09T11:22:40;10.70;;;3.60;;
18610;SDS011;9435;52.122;5.502;2022-09-09T11:25:14;8.95;;;3.30;;
18610;SDS011;9435;52.122;5.502;2022-09-09T11:27:49;8.90;;;3.13;;
18610;SDS011;9435;52.122;5.502;2022-09-09T11:30:29;8.20;;;2.83;;
18610;SDS011;9435;52.122;5.502;2022-09-09T11:33:18;9.50;;;2.83;;
18610;SDS011;9435;52.122;5.502;2022-09-09T11:36:12;10.00;;;2.75;;
18610;SDS011;9435;52.122;5.502;2022-09-09T11:39:02;10.38;;;2.55;;
18610;SDS011;9435;52.122;5.502;2022-09-09T11:41:40;7.13;;;2.88;;
18610;SDS011;9435;52.122;5.502;2022-09-09T11:44:09;9.73;;;3.00;;
18610;SDS011;9435;52.122;5.502;2022-09-09T11:46:38;9.15;;;3.13;;
18610;SDS011;9435;52.122;5.502;2022-09-09T11:51:56;6.93;;;2.70;;
18610;SDS011;9435;52.122;5.502;2022-09-09T11:54:30;8.93;;;2.78;;
18610;SDS011;9435;52.122;5.502;2022-09-09T11:56:58;7.38;;;2.63;;
18610;SDS011;9435;52.122;5.502;2022-09-09T11:59:26;8.27;;;2.85;;
18610;SDS011;9435;52.122;5.502;2022-09-09T12:01:56;8.65;;;3.10;;
18610;SDS011;9435;52.122;5.502;2022-09-09T12:04:33;7.50;;;2.85;;
18610;SDS011;9435;52.122;5.502;2022-09-09T12:07:05;8.32;;;2.85;;
18610;SDS011;9435;52.122;5.502;2022-09-09T12:09:51;10.35;;;2.65;;
18610;SDS011;9435;52.122;5.502;2022-09-09T12:12:26;12.10;;;3.35;;
18610;SDS011;9435;52.122;5.502;2022-09-09T12:15:02;8.85;;;2.95;;
18610;SDS011;9435;52.122;5.502;2022-09-09T12:17:46;10.20;;;2.97;;
18610;SDS011;9435;52.122;5.502;2022-09-09T12:20:18;8.65;;;3.00;;
18610;SDS011;9435;52.122;5.502;2022-09-09T12:22:51;7.35;;;2.90;;
18610;SDS011;9435;52.122;5.502;2022-09-09T12:25:48;8.93;;;3.13;;
18610;SDS011;9435;52.122;5.502;2022-09-09T12:28:41;8.95;;;3.08;;
18610;SDS011;9435;52.122;5.502;2022-09-09T12:31:17;7.15;;;2.90;;
18610;SDS011;9435;52.122;5.502;2022-09-09T12:33:50;9.88;;;3.28;;
18610;SDS011;9435;52.122;5.502;2022-09-09T12:36:19;8.57;;;3.05;;
18610;SDS011;9435;52.122;5.502;2022-09-09T12:38:49;8.13;;;3.22;;
18610;SDS011;9435;52.122;5.502;2022-09-09T12:41:21;12.93;;;3.63;;
18610;SDS011;9435;52.122;5.502;2022-09-09T12:43:50;13.77;;;4.10;;
18610;SDS011;9435;52.122;5.502;2022-09-09T12:46:22;8.20;;;3.10;;
18610;SDS011;9435;52.122;5.502;2022-09-09T12:48:56;8.45;;;3.40;;
18610;SDS011;9435;52.122;5.502;2022-09-09T12:51:27;8.02;;;3.55;;
18610;SDS011;9435;52.122;5.502;2022-09-09T12:53:56;6.97;;;3.40;;
18610;SDS011;9435;52.122;5.502;2022-09-09T12:56:25;7.65;;;3.30;;
18610;SDS011;9435;52.122;5.502;2022-09-09T12:58:55;9.52;;;3.70;;
18610;SDS011;9435;52.122;5.502;2022-09-09T13:01:24;7.05;;;3.15;;
18610;SDS011;9435;52.122;5.502;2022-09-09T13:03:53;10.40;;;3.45;;
18610;SDS011;9435;52.122;5.502;2022-09-09T13:06:21;7.13;;;3.22;;
18610;SDS011;9435;52.122;5.502;2022-09-09T13:08:55;7.75;;;3.42;;
18610;SDS011;9435;52.122;5.502;2022-09-09T13:11:25;8.35;;;3.20;;
18610;SDS011;9435;52.122;5.502;2022-09-09T13:13:56;7.82;;;2.83;;
18610;SDS011;9435;52.122;5.502;2022-09-09T13:16:25;8.65;;;2.90;;
18610;SDS011;9435;52.122;5.502;2022-09-09T13:18:56;6.30;;;2.92;;
18610;SDS011;9435;52.122;5.502;2022-09-09T13:21:31;7.38;;;3.33;;
18610;SDS011;9435;52.122;5.502;2022-09-09T13:24:01;9.48;;;2.92;;
18610;SDS011;9435;52.122;5.502;2022-09-09T13:26:31;12.05;;;3.70;;
18610;SDS011;9435;52.122;5.502;2022-09-09T13:29:07;8.85;;;3.55;;
18610;SDS011;9435;52.122;5.502;2022-09-09T13:31:43;9.30;;;3.40;;
18610;SDS011;9435;52.122;5.502;2022-09-09T13:34:11;7.95;;;3.50;;
18610;SDS011;9435;52.122;5.502;2022-09-09T13:36:39;10.43;;;4.13;;
18610;SDS011;9435;52.122;5.502;2022-09-09T13:39:15;9.07;;;3.95;;
18610;SDS011;9435;52.122;5.502;2022-09-09T13:41:43;7.55;;;3.45;;
18610;SDS011;9435;52.122;5.502;2022-09-09T13:44:14;13.02;;;3.92;;
18610;SDS011;9435;52.122;5.502;2022-09-09T13:46:58;7.43;;;3.45;;
18610;SDS011;9435;52.122;5.502;2022-09-09T13:49:28;7.75;;;3.65;;
18610;SDS011;9435;52.122;5.502;2022-09-09T13:54:46;8.18;;;3.38;;
18610;SDS011;9435;52.122;5.502;2022-09-09T13:57:15;7.53;;;3.13;;
18610;SDS011;9435;52.122;5.502;2022-09-09T13:59:43;9.38;;;3.28;;
18610;SDS011;9435;52.122;5.502;2022-09-09T14:02:11;10.75;;;3.55;;
18610;SDS011;9435;52.122;5.502;2022-09-09T14:04:38;7.68;;;3.15;;
18610;SDS011;9435;52.122;5.502;2022-09-09T14:07:07;8.50;;;3.55;;
18610;SDS011;9435;52.122;5.502;2022-09-09T14:09:37;7.78;;;3.03;;
18610;SDS011;9435;52.122;5.502;2022-09-09T14:12:08;6.65;;;3.13;;
18610;SDS011;9435;52.122;5.502;2022-09-09T14:14:36;8.10;;;3.30;;
18610;SDS011;9435;52.122;5.502;2022-09-09T14:17:03;8.65;;;3.20;;
18610;SDS011;9435;52.122;5.502;2022-09-09T14:19:30;6.97;;;3.03;;
18610;SDS011;9435;52.122;5.502;2022-09-09T14:21:57;8.43;;;3.15;;
18610;SDS011;9435;52.122;5.502;2022-09-09T14:24:24;6.25;;;2.70;;
18610;SDS011;9435;52.122;5.502;2022-09-09T14:26:51;10.48;;;3.13;;
18610;SDS011;9435;52.122;5.502;2022-09-09T14:29:19;7.93;;;3.00;;
18610;SDS011;9435;52.122;5.502;2022-09-09T14:31:46;7.40;;;2.70;;
18610;SDS011;9435;52.122;5.502;2022-09-09T14:34:13;7.85;;;2.65;;
18610;SDS011;9435;52.122;5.502;2022-09-09T14:36:40;5.55;;;2.55;;
18610;SDS011;9435;52.122;5.502;2022-09-09T14:39:09;9.98;;;2.72;;
18610;SDS011;9435;52.122;5.502;2022-09-09T14:41:36;11.55;;;2.83;;
18610;SDS011;9435;52.122;5.502;2022-09-09T14:44:03;4.97;;;2.65;;
18610;SDS011;9435;52.122;5.502;2022-09-09T14:46:32;6.25;;;2.65;;
18610;SDS011;9435;52.122;5.502;2022-09-09T14:48:59;5.60;;;2.70;;
18610;SDS011;9435;52.122;5.502;2022-09-09T14:51:26;8.25;;;3.03;;
18610;SDS011;9435;52.122;5.502;2022-09-09T14:53:53;5.40;;;2.63;;
18610;SDS011;9435;52.122;5.502;2022-09-09T14:56:23;5.03;;;2.60;;
18610;SDS011;9435;52.122;5.502;2022-09-09T14:58:52;5.13;;;2.63;;
18610;SDS011;9435;52.122;5.502;2022-09-09T15:01:21;7.30;;;3.00;;
18610;SDS011;9435;52.122;5.502;2022-09-09T15:03:50;5.22;;;2.80;;
18610;SDS011;9435;52.122;5.502;2022-09-09T15:06:19;8.63;;;3.00;;
18610;SDS011;9435;52.122;5.502;2022-09-09T15:08:49;16.35;;;4.40;;
18610;SDS011;9435;52.122;5.502;2022-09-09T15:11:17;10.50;;;3.80;;
18610;SDS011;9435;52.122;5.502;2022-09-09T15:13:45;10.23;;;3.63;;
18610;SDS011;9435;52.122;5.502;2022-09-09T15:16:13;10.73;;;3.80;;
18610;SDS011;9435;52.122;5.502;2022-09-09T15:18:42;8.57;;;3.70;;
18610;SDS011;9435;52.122;5.502;2022-09-09T15:21:13;6.75;;;3.65;;
18610;SDS011;9435;52.122;5.502;2022-09-09T15:23:42;7.07;;;3.63;;
18610;SDS011;9435;52.122;5.502;2022-09-09T15:26:10;8.75;;;3.30;;
18610;SDS011;9435;52.122;5.502;2022-09-09T15:28:39;7.45;;;3.97;;
18610;SDS011;9435;52.122;5.502;2022-09-09T15:31:07;10.05;;;4.57;;
18610;SDS011;9435;52.122;5.502;2022-09-09T15:33:39;8.15;;;4.78;;